sensor_id;sensor_type;location;lat;lon;timestamp;temperature;humidity
74224;SHT31;62585;49.706;18.216;2024-01-11T00:02:18;-5.54;68.47
74224;SHT31;62585;49.706;18.216;2024-01-11T00:04:44;-5.75;68.53
74224;SHT31;62585;49.706;18.216;2024-01-11T00:07:10;-5.91;68.98
74224;SHT31;62585;49.706;18.216;2024-01-11T00:09:41;-5.95;69.31
74224;SHT31;62585;49.706;18.216;2024-01-11T00:12:07;-5.94;69.40
74224;SHT31;62585;49.706;18.216;2024-01-11T00:14:33;-5.87;68.90
74224;SHT31;62585;49.706;18.216;2024-01-11T00:16:59;-5.87;68.26
74224;SHT31;62585;49.706;18.216;2024-01-11T00:19:25;-5.85;68.27
74224;SHT31;62585;49.706;18.216;2024-01-11T00:21:51;-5.81;67.95
74224;SHT31;62585;49.706;18.216;2024-01-11T00:24:17;-5.73;67.52
74224;SHT31;62585;49.706;18.216;2024-01-11T00:26:42;-5.85;67.31
74224;SHT31;62585;49.706;18.216;2024-01-11T00:29:08;-5.80;67.33
74224;SHT31;62585;49.706;18.216;2024-01-11T00:31:34;-5.71;67.00
74224;SHT31;62585;49.706;18.216;2024-01-11T00:34:01;-5.71;66.78
74224;SHT31;62585;49.706;18.216;2024-01-11T00:36:26;-5.81;66.88
74224;SHT31;62585;49.706;18.216;2024-01-11T00:38:54;-5.75;66.90
74224;SHT31;62585;49.706;18.216;2024-01-11T00:41:20;-5.85;66.70
74224;SHT31;62585;49.706;18.216;2024-01-11T00:43:46;-6.08;66.91
74224;SHT31;62585;49.706;18.216;2024-01-11T00:46:11;-6.39;67.92
74224;SHT31;62585;49.706;18.216;2024-01-11T00:48:37;-6.47;67.05
74224;SHT31;62585;49.706;18.216;2024-01-11T00:51:04;-6.98;67.85
74224;SHT31;62585;49.706;18.216;2024-01-11T00:53:31;-7.38;67.86
74224;SHT31;62585;49.706;18.216;2024-01-11T00:56:00;-7.33;68.09
74224;SHT31;62585;49.706;18.216;2024-01-11T00:58:26;-7.21;68.15
74224;SHT31;62585;49.706;18.216;2024-01-11T01:00:53;-7.22;68.06
74224;SHT31;62585;49.706;18.216;2024-01-11T01:03:21;-7.12;68.51
74224;SHT31;62585;49.706;18.216;2024-01-11T01:05:46;-7.25;69.37
74224;SHT31;62585;49.706;18.216;2024-01-11T01:08:13;-7.50;70.65
74224;SHT31;62585;49.706;18.216;2024-01-11T01:10:39;-7.81;72.19
74224;SHT31;62585;49.706;18.216;2024-01-11T01:13:05;-7.97;71.57
74224;SHT31;62585;49.706;18.216;2024-01-11T01:15:31;-7.95;71.74
74224;SHT31;62585;49.706;18.216;2024-01-11T01:17:57;-8.11;72.42
74224;SHT31;62585;49.706;18.216;2024-01-11T01:20:23;-8.11;73.07
74224;SHT31;62585;49.706;18.216;2024-01-11T01:22:49;-7.93;72.21
74224;SHT31;62585;49.706;18.216;2024-01-11T01:25:15;-7.93;71.86
74224;SHT31;62585;49.706;18.216;2024-01-11T01:27:41;-8.25;73.03
74224;SHT31;62585;49.706;18.216;2024-01-11T01:30:07;-8.54;74.70
74224;SHT31;62585;49.706;18.216;2024-01-11T01:32:34;-8.50;75.08
74224;SHT31;62585;49.706;18.216;2024-01-11T01:35:00;-8.49;75.09
74224;SHT31;62585;49.706;18.216;2024-01-11T01:37:26;-8.53;75.87
74224;SHT31;62585;49.706;18.216;2024-01-11T01:39:52;-8.35;75.67
74224;SHT31;62585;49.706;18.216;2024-01-11T01:42:18;-8.19;74.63
74224;SHT31;62585;49.706;18.216;2024-01-11T01:44:43;-8.05;74.41
74224;SHT31;62585;49.706;18.216;2024-01-11T01:47:10;-8.05;74.66
74224;SHT31;62585;49.706;18.216;2024-01-11T01:49:37;-7.80;74.52
74224;SHT31;62585;49.706;18.216;2024-01-11T01:52:05;-7.50;73.84
74224;SHT31;62585;49.706;18.216;2024-01-11T01:54:32;-7.30;73.33
74224;SHT31;62585;49.706;18.216;2024-01-11T01:56:59;-6.87;72.08
74224;SHT31;62585;49.706;18.216;2024-01-11T01:59:26;-6.73;71.47
74224;SHT31;62585;49.706;18.216;2024-01-11T02:01:53;-6.49;70.48
74224;SHT31;62585;49.706;18.216;2024-01-11T02:04:19;-6.42;70.26
74224;SHT31;62585;49.706;18.216;2024-01-11T02:06:46;-6.28;69.68
74224;SHT31;62585;49.706;18.216;2024-01-11T02:09:13;-5.98;68.96
74224;SHT31;62585;49.706;18.216;2024-01-11T02:11:40;-5.81;68.11
74224;SHT31;62585;49.706;18.216;2024-01-11T02:14:07;-5.71;67.54
74224;SHT31;62585;49.706;18.216;2024-01-11T02:16:33;-5.81;67.84
74224;SHT31;62585;49.706;18.216;2024-01-11T02:18:58;-5.97;67.82
74224;SHT31;62585;49.706;18.216;2024-01-11T02:21:26;-5.59;67.45
74224;SHT31;62585;49.706;18.216;2024-01-11T02:24:05;-5.25;66.20
74224;SHT31;62585;49.706;18.216;2024-01-11T02:26:31;-5.26;65.54
74224;SHT31;62585;49.706;18.216;2024-01-11T02:28:57;-5.40;65.79
74224;SHT31;62585;49.706;18.216;2024-01-11T02:31:23;-6.43;65.56
74224;SHT31;62585;49.706;18.216;2024-01-11T02:33:50;-6.61;66.85
74224;SHT31;62585;49.706;18.216;2024-01-11T02:36:16;-6.61;66.96
74224;SHT31;62585;49.706;18.216;2024-01-11T02:38:43;-6.76;67.43
74224;SHT31;62585;49.706;18.216;2024-01-11T02:41:09;-6.66;67.28
74224;SHT31;62585;49.706;18.216;2024-01-11T02:43:35;-6.92;68.11
74224;SHT31;62585;49.706;18.216;2024-01-11T02:46:02;-7.00;68.05
74224;SHT31;62585;49.706;18.216;2024-01-11T02:48:29;-6.84;67.87
74224;SHT31;62585;49.706;18.216;2024-01-11T02:50:58;-6.95;68.30
74224;SHT31;62585;49.706;18.216;2024-01-11T02:53:24;-7.09;68.89
74224;SHT31;62585;49.706;18.216;2024-01-11T02:55:50;-7.01;69.33
74224;SHT31;62585;49.706;18.216;2024-01-11T02:58:16;-6.94;68.94
74224;SHT31;62585;49.706;18.216;2024-01-11T03:00:42;-7.05;69.05
74224;SHT31;62585;49.706;18.216;2024-01-11T03:03:08;-7.07;69.20
74224;SHT31;62585;49.706;18.216;2024-01-11T03:05:34;-6.94;69.00
74224;SHT31;62585;49.706;18.216;2024-01-11T03:07:59;-7.29;67.84
74224;SHT31;62585;49.706;18.216;2024-01-11T03:10:25;-7.49;68.31
74224;SHT31;62585;49.706;18.216;2024-01-11T03:12:50;-7.43;68.99
74224;SHT31;62585;49.706;18.216;2024-01-11T03:15:16;-7.77;70.81
74224;SHT31;62585;49.706;18.216;2024-01-11T03:17:42;-7.64;70.86
74224;SHT31;62585;49.706;18.216;2024-01-11T03:20:08;-7.47;69.81
74224;SHT31;62585;49.706;18.216;2024-01-11T03:22:34;-7.42;69.61
74224;SHT31;62585;49.706;18.216;2024-01-11T03:25:00;-7.39;69.29
74224;SHT31;62585;49.706;18.216;2024-01-11T03:27:25;-7.28;69.14
74224;SHT31;62585;49.706;18.216;2024-01-11T03:29:51;-7.08;68.81
74224;SHT31;62585;49.706;18.216;2024-01-11T03:32:17;-6.95;68.36
74224;SHT31;62585;49.706;18.216;2024-01-11T03:34:43;-6.80;67.97
74224;SHT31;62585;49.706;18.216;2024-01-11T03:37:08;-6.94;67.62
74224;SHT31;62585;49.706;18.216;2024-01-11T03:39:34;-7.02;68.18
74224;SHT31;62585;49.706;18.216;2024-01-11T03:42:00;-7.23;67.89
74224;SHT31;62585;49.706;18.216;2024-01-11T03:44:26;-7.09;68.29
74224;SHT31;62585;49.706;18.216;2024-01-11T03:46:51;-7.44;67.95
74224;SHT31;62585;49.706;18.216;2024-01-11T03:49:17;-7.43;68.19
74224;SHT31;62585;49.706;18.216;2024-01-11T03:51:43;-7.40;68.02
74224;SHT31;62585;49.706;18.216;2024-01-11T03:54:10;-7.46;68.31
74224;SHT31;62585;49.706;18.216;2024-01-11T03:56:39;-7.40;68.58
74224;SHT31;62585;49.706;18.216;2024-01-11T03:59:05;-7.38;68.47
74224;SHT31;62585;49.706;18.216;2024-01-11T04:01:33;-7.74;69.55
74224;SHT31;62585;49.706;18.216;2024-01-11T04:04:03;-7.66;69.64
74224;SHT31;62585;49.706;18.216;2024-01-11T04:06:29;-8.05;70.33
74224;SHT31;62585;49.706;18.216;2024-01-11T04:08:55;-7.93;71.14
74224;SHT31;62585;49.706;18.216;2024-01-11T04:11:20;-7.77;70.54
74224;SHT31;62585;49.706;18.216;2024-01-11T04:13:46;-7.69;69.96
74224;SHT31;62585;49.706;18.216;2024-01-11T04:16:12;-7.77;70.15
74224;SHT31;62585;49.706;18.216;2024-01-11T04:18:38;-7.94;70.66
74224;SHT31;62585;49.706;18.216;2024-01-11T04:21:04;-8.40;71.93
74224;SHT31;62585;49.706;18.216;2024-01-11T04:23:30;-8.37;71.48
74224;SHT31;62585;49.706;18.216;2024-01-11T04:25:56;-8.39;71.89
74224;SHT31;62585;49.706;18.216;2024-01-11T04:28:21;-8.29;72.06
74224;SHT31;62585;49.706;18.216;2024-01-11T04:30:47;-8.22;71.92
74224;SHT31;62585;49.706;18.216;2024-01-11T04:33:13;-8.01;71.75
74224;SHT31;62585;49.706;18.216;2024-01-11T04:35:38;-7.73;70.75
74224;SHT31;62585;49.706;18.216;2024-01-11T04:38:04;-7.59;69.98
74224;SHT31;62585;49.706;18.216;2024-01-11T04:40:30;-7.60;69.76
74224;SHT31;62585;49.706;18.216;2024-01-11T04:42:56;-7.67;69.89
74224;SHT31;62585;49.706;18.216;2024-01-11T04:45:22;-7.74;70.59
74224;SHT31;62585;49.706;18.216;2024-01-11T04:47:50;-7.59;71.34
74224;SHT31;62585;49.706;18.216;2024-01-11T04:50:16;-7.51;70.90
74224;SHT31;62585;49.706;18.216;2024-01-11T04:52:41;-7.44;70.35
74224;SHT31;62585;49.706;18.216;2024-01-11T04:55:07;-7.66;70.58
74224;SHT31;62585;49.706;18.216;2024-01-11T04:57:33;-7.69;71.64
74224;SHT31;62585;49.706;18.216;2024-01-11T04:59:59;-7.63;71.38
74224;SHT31;62585;49.706;18.216;2024-01-11T05:02:24;-7.66;71.40
74224;SHT31;62585;49.706;18.216;2024-01-11T05:04:50;-7.69;72.09
74224;SHT31;62585;49.706;18.216;2024-01-11T05:07:16;-7.67;71.31
74224;SHT31;62585;49.706;18.216;2024-01-11T05:09:41;-7.76;70.14
74224;SHT31;62585;49.706;18.216;2024-01-11T05:12:07;-8.29;69.84
74224;SHT31;62585;49.706;18.216;2024-01-11T05:14:33;-8.02;70.70
74224;SHT31;62585;49.706;18.216;2024-01-11T05:16:59;-8.15;71.25
74224;SHT31;62585;49.706;18.216;2024-01-11T05:19:26;-8.05;70.81
74224;SHT31;62585;49.706;18.216;2024-01-11T05:21:51;-7.84;71.11
74224;SHT31;62585;49.706;18.216;2024-01-11T05:24:17;-7.90;71.45
74224;SHT31;62585;49.706;18.216;2024-01-11T05:26:43;-7.90;70.22
74224;SHT31;62585;49.706;18.216;2024-01-11T05:29:08;-8.09;69.81
74224;SHT31;62585;49.706;18.216;2024-01-11T05:31:35;-8.33;70.11
74224;SHT31;62585;49.706;18.216;2024-01-11T05:34:00;-8.43;70.25
74224;SHT31;62585;49.706;18.216;2024-01-11T05:36:26;-8.30;69.83
74224;SHT31;62585;49.706;18.216;2024-01-11T05:38:52;-8.26;69.59
74224;SHT31;62585;49.706;18.216;2024-01-11T05:41:18;-8.46;70.35
74224;SHT31;62585;49.706;18.216;2024-01-11T05:43:43;-8.46;71.17
74224;SHT31;62585;49.706;18.216;2024-01-11T05:46:09;-8.71;73.58
74224;SHT31;62585;49.706;18.216;2024-01-11T05:48:36;-9.01;75.51
74224;SHT31;62585;49.706;18.216;2024-01-11T05:51:02;-8.77;75.25
74224;SHT31;62585;49.706;18.216;2024-01-11T05:53:28;-8.47;73.29
74224;SHT31;62585;49.706;18.216;2024-01-11T05:55:54;-8.25;72.47
74224;SHT31;62585;49.706;18.216;2024-01-11T05:58:19;-8.25;72.19
74224;SHT31;62585;49.706;18.216;2024-01-11T06:00:46;-8.18;71.92
74224;SHT31;62585;49.706;18.216;2024-01-11T06:03:12;-8.18;71.69
74224;SHT31;62585;49.706;18.216;2024-01-11T06:05:39;-8.18;71.22
74224;SHT31;62585;49.706;18.216;2024-01-11T06:08:05;-8.45;71.30
74224;SHT31;62585;49.706;18.216;2024-01-11T06:10:31;-8.74;70.87
74224;SHT31;62585;49.706;18.216;2024-01-11T06:12:56;-9.08;69.76
74224;SHT31;62585;49.706;18.216;2024-01-11T06:15:22;-9.29;71.18
74224;SHT31;62585;49.706;18.216;2024-01-11T06:17:48;-9.28;71.25
74224;SHT31;62585;49.706;18.216;2024-01-11T06:20:14;-9.00;71.65
74224;SHT31;62585;49.706;18.216;2024-01-11T06:22:39;-8.83;71.91
74224;SHT31;62585;49.706;18.216;2024-01-11T06:25:05;-8.76;72.26
74224;SHT31;62585;49.706;18.216;2024-01-11T06:27:31;-8.73;72.19
74224;SHT31;62585;49.706;18.216;2024-01-11T06:29:57;-8.58;72.22
74224;SHT31;62585;49.706;18.216;2024-01-11T06:32:23;-8.46;72.28
74224;SHT31;62585;49.706;18.216;2024-01-11T06:34:49;-8.45;72.77
74224;SHT31;62585;49.706;18.216;2024-01-11T06:37:15;-8.19;72.32
74224;SHT31;62585;49.706;18.216;2024-01-11T06:39:41;-8.05;71.83
74224;SHT31;62585;49.706;18.216;2024-01-11T06:42:07;-7.91;71.13
74224;SHT31;62585;49.706;18.216;2024-01-11T06:44:32;-7.88;70.29
74224;SHT31;62585;49.706;18.216;2024-01-11T06:46:58;-7.90;70.15
74224;SHT31;62585;49.706;18.216;2024-01-11T06:49:24;-7.80;70.41
74224;SHT31;62585;49.706;18.216;2024-01-11T06:51:50;-7.97;70.99
74224;SHT31;62585;49.706;18.216;2024-01-11T06:54:15;-8.04;71.54
74224;SHT31;62585;49.706;18.216;2024-01-11T06:56:41;-8.22;71.21
74224;SHT31;62585;49.706;18.216;2024-01-11T06:59:07;-8.11;71.22
74224;SHT31;62585;49.706;18.216;2024-01-11T07:01:33;-8.28;70.74
74224;SHT31;62585;49.706;18.216;2024-01-11T07:03:59;-8.46;70.42
74224;SHT31;62585;49.706;18.216;2024-01-11T07:06:24;-8.40;69.92
74224;SHT31;62585;49.706;18.216;2024-01-11T07:08:50;-8.45;69.74
74224;SHT31;62585;49.706;18.216;2024-01-11T07:11:16;-8.71;70.25
74224;SHT31;62585;49.706;18.216;2024-01-11T07:13:41;-8.66;71.27
74224;SHT31;62585;49.706;18.216;2024-01-11T07:16:09;-8.46;71.24
74224;SHT31;62585;49.706;18.216;2024-01-11T07:18:35;-8.22;71.24
74224;SHT31;62585;49.706;18.216;2024-01-11T07:21:01;-8.43;71.31
74224;SHT31;62585;49.706;18.216;2024-01-11T07:23:27;-8.42;72.26
74224;SHT31;62585;49.706;18.216;2024-01-11T07:25:53;-8.29;72.14
74224;SHT31;62585;49.706;18.216;2024-01-11T07:28:18;-8.16;71.87
74224;SHT31;62585;49.706;18.216;2024-01-11T07:30:45;-8.15;71.93
74224;SHT31;62585;49.706;18.216;2024-01-11T07:33:12;-7.97;72.13
74224;SHT31;62585;49.706;18.216;2024-01-11T07:35:37;-7.77;71.82
74224;SHT31;62585;49.706;18.216;2024-01-11T07:38:03;-7.64;71.65
74224;SHT31;62585;49.706;18.216;2024-01-11T07:40:29;-7.56;71.16
74224;SHT31;62585;49.706;18.216;2024-01-11T07:42:55;-7.38;70.87
74224;SHT31;62585;49.706;18.216;2024-01-11T07:45:21;-7.12;70.28
74224;SHT31;62585;49.706;18.216;2024-01-11T07:47:47;-6.79;69.86
74224;SHT31;62585;49.706;18.216;2024-01-11T07:50:13;-6.69;69.39
74224;SHT31;62585;49.706;18.216;2024-01-11T07:52:39;-6.42;68.92
74224;SHT31;62585;49.706;18.216;2024-01-11T07:55:09;-6.12;66.29
74224;SHT31;62585;49.706;18.216;2024-01-11T07:57:37;-6.11;64.83
74224;SHT31;62585;49.706;18.216;2024-01-11T08:00:05;-5.74;64.21
74224;SHT31;62585;49.706;18.216;2024-01-11T08:02:34;-5.18;62.87
74224;SHT31;62585;49.706;18.216;2024-01-11T08:05:01;-4.45;61.66
74224;SHT31;62585;49.706;18.216;2024-01-11T08:07:27;-4.25;60.73
74224;SHT31;62585;49.706;18.216;2024-01-11T08:09:53;-3.94;60.63
74224;SHT31;62585;49.706;18.216;2024-01-11T08:12:19;-3.08;57.95
74224;SHT31;62585;49.706;18.216;2024-01-11T08:14:45;-1.88;56.27
74224;SHT31;62585;49.706;18.216;2024-01-11T08:17:15;-1.66;54.06
74224;SHT31;62585;49.706;18.216;2024-01-11T08:19:40;-2.16;55.01
74224;SHT31;62585;49.706;18.216;2024-01-11T08:22:09;-1.35;53.62
74224;SHT31;62585;49.706;18.216;2024-01-11T08:24:35;-1.53;53.14
74224;SHT31;62585;49.706;18.216;2024-01-11T08:27:01;-0.95;53.57
74224;SHT31;62585;49.706;18.216;2024-01-11T08:29:26;0.41;50.55
74224;SHT31;62585;49.706;18.216;2024-01-11T08:31:53;1.18;48.79
74224;SHT31;62585;49.706;18.216;2024-01-11T08:34:20;1.50;46.67
74224;SHT31;62585;49.706;18.216;2024-01-11T08:36:46;1.59;46.78
74224;SHT31;62585;49.706;18.216;2024-01-11T08:39:13;1.34;46.39
74224;SHT31;62585;49.706;18.216;2024-01-11T08:41:40;0.91;47.78
74224;SHT31;62585;49.706;18.216;2024-01-11T08:44:05;0.91;47.71
74224;SHT31;62585;49.706;18.216;2024-01-11T08:46:32;-0.26;50.17
74224;SHT31;62585;49.706;18.216;2024-01-11T08:49:01;-1.17;53.83
74224;SHT31;62585;49.706;18.216;2024-01-11T08:51:31;-2.06;56.65
74224;SHT31;62585;49.706;18.216;2024-01-11T08:54:06;-1.13;56.87
74224;SHT31;62585;49.706;18.216;2024-01-11T08:56:34;0.16;53.22
74224;SHT31;62585;49.706;18.216;2024-01-11T08:59:01;0.53;51.53
74224;SHT31;62585;49.706;18.216;2024-01-11T09:01:27;0.70;50.66
74224;SHT31;62585;49.706;18.216;2024-01-11T09:03:53;0.60;52.31
74224;SHT31;62585;49.706;18.216;2024-01-11T09:06:19;-0.07;52.76
74224;SHT31;62585;49.706;18.216;2024-01-11T09:08:44;-0.56;53.69
74224;SHT31;62585;49.706;18.216;2024-01-11T09:11:10;-0.91;55.38
74224;SHT31;62585;49.706;18.216;2024-01-11T09:13:36;-0.82;58.06
74224;SHT31;62585;49.706;18.216;2024-01-11T09:16:02;-0.44;55.91
74224;SHT31;62585;49.706;18.216;2024-01-11T09:18:28;-0.36;55.69
74224;SHT31;62585;49.706;18.216;2024-01-11T09:20:53;-0.65;55.96
74224;SHT31;62585;49.706;18.216;2024-01-11T09:23:19;-0.87;57.77
74224;SHT31;62585;49.706;18.216;2024-01-11T09:25:45;-1.71;59.53
74224;SHT31;62585;49.706;18.216;2024-01-11T09:28:10;-1.85;60.66
74224;SHT31;62585;49.706;18.216;2024-01-11T09:30:36;-1.66;61.34
74224;SHT31;62585;49.706;18.216;2024-01-11T09:33:02;-1.25;60.38
74224;SHT31;62585;49.706;18.216;2024-01-11T09:35:28;-1.26;60.34
74224;SHT31;62585;49.706;18.216;2024-01-11T09:37:53;-1.47;60.91
74224;SHT31;62585;49.706;18.216;2024-01-11T09:40:19;-1.43;61.12
74224;SHT31;62585;49.706;18.216;2024-01-11T09:42:45;-1.53;61.90
74224;SHT31;62585;49.706;18.216;2024-01-11T09:45:16;-1.74;62.86
74224;SHT31;62585;49.706;18.216;2024-01-11T09:47:42;-1.89;62.30
74224;SHT31;62585;49.706;18.216;2024-01-11T09:50:10;-1.77;63.04
74224;SHT31;62585;49.706;18.216;2024-01-11T09:52:36;-1.68;63.29
74224;SHT31;62585;49.706;18.216;2024-01-11T09:55:03;-1.40;62.87
74224;SHT31;62585;49.706;18.216;2024-01-11T09:57:30;-1.43;63.46
74224;SHT31;62585;49.706;18.216;2024-01-11T09:59:57;-1.26;62.76
74224;SHT31;62585;49.706;18.216;2024-01-11T10:02:24;-1.25;63.34
74224;SHT31;62585;49.706;18.216;2024-01-11T10:04:53;-1.43;64.17
74224;SHT31;62585;49.706;18.216;2024-01-11T10:07:21;-1.53;63.26
74224;SHT31;62585;49.706;18.216;2024-01-11T10:09:48;-1.33;62.92
74224;SHT31;62585;49.706;18.216;2024-01-11T10:12:14;-1.43;64.87
74224;SHT31;62585;49.706;18.216;2024-01-11T10:14:40;-1.16;63.21
74224;SHT31;62585;49.706;18.216;2024-01-11T10:17:06;-1.19;63.86
74224;SHT31;62585;49.706;18.216;2024-01-11T10:19:32;-1.23;65.09
74224;SHT31;62585;49.706;18.216;2024-01-11T10:21:58;-1.01;64.61
74224;SHT31;62585;49.706;18.216;2024-01-11T10:24:24;-0.89;63.84
74224;SHT31;62585;49.706;18.216;2024-01-11T10:26:57;-0.99;66.47
74224;SHT31;62585;49.706;18.216;2024-01-11T10:29:33;-0.78;65.80
74224;SHT31;62585;49.706;18.216;2024-01-11T10:32:00;-0.70;64.89
74224;SHT31;62585;49.706;18.216;2024-01-11T10:34:26;-0.95;65.60
74224;SHT31;62585;49.706;18.216;2024-01-11T10:36:52;-0.93;66.33
74224;SHT31;62585;49.706;18.216;2024-01-11T10:39:24;-0.65;65.34
74224;SHT31;62585;49.706;18.216;2024-01-11T10:42:04;-0.89;65.16
74224;SHT31;62585;49.706;18.216;2024-01-11T10:44:33;-0.77;66.11
74224;SHT31;62585;49.706;18.216;2024-01-11T10:46:59;-0.44;66.28
74224;SHT31;62585;49.706;18.216;2024-01-11T10:49:29;-0.56;66.48
74224;SHT31;62585;49.706;18.216;2024-01-11T10:52:03;-0.57;67.23
74224;SHT31;62585;49.706;18.216;2024-01-11T10:54:31;-0.50;66.30
74224;SHT31;62585;49.706;18.216;2024-01-11T10:57:00;-0.38;65.98
74224;SHT31;62585;49.706;18.216;2024-01-11T10:59:27;-0.38;64.92
74224;SHT31;62585;49.706;18.216;2024-01-11T11:01:53;-0.56;62.93
74224;SHT31;62585;49.706;18.216;2024-01-11T11:04:22;-0.40;65.63
74224;SHT31;62585;49.706;18.216;2024-01-11T11:06:54;-0.13;66.36
74224;SHT31;62585;49.706;18.216;2024-01-11T11:09:21;-0.36;63.90
74224;SHT31;62585;49.706;18.216;2024-01-11T11:11:49;-0.43;66.30
74224;SHT31;62585;49.706;18.216;2024-01-11T11:14:15;-0.02;64.68
74224;SHT31;62585;49.706;18.216;2024-01-11T11:16:41;0.16;65.31
74224;SHT31;62585;49.706;18.216;2024-01-11T11:19:08;0.41;64.48
74224;SHT31;62585;49.706;18.216;2024-01-11T11:21:42;0.14;62.81
74224;SHT31;62585;49.706;18.216;2024-01-11T11:24:08;0.19;62.10
74224;SHT31;62585;49.706;18.216;2024-01-11T11:26:34;0.36;63.59
74224;SHT31;62585;49.706;18.216;2024-01-11T11:29:00;0.59;63.55
74224;SHT31;62585;49.706;18.216;2024-01-11T11:31:42;0.95;63.68
74224;SHT31;62585;49.706;18.216;2024-01-11T11:34:12;1.27;59.71
74224;SHT31;62585;49.706;18.216;2024-01-11T11:36:40;1.56;58.90
74224;SHT31;62585;49.706;18.216;2024-01-11T11:39:10;1.53;57.30
74224;SHT31;62585;49.706;18.216;2024-01-11T11:41:39;1.18;57.37
74224;SHT31;62585;49.706;18.216;2024-01-11T11:44:05;1.11;58.24
74224;SHT31;62585;49.706;18.216;2024-01-11T11:46:32;1.64;58.47
74224;SHT31;62585;49.706;18.216;2024-01-11T11:48:58;1.87;58.06
74224;SHT31;62585;49.706;18.216;2024-01-11T11:51:25;2.04;55.23
74224;SHT31;62585;49.706;18.216;2024-01-11T11:53:52;1.93;56.01
74224;SHT31;62585;49.706;18.216;2024-01-11T11:56:21;1.84;57.18
74224;SHT31;62585;49.706;18.216;2024-01-11T11:58:48;1.59;57.43
74224;SHT31;62585;49.706;18.216;2024-01-11T12:01:16;1.39;59.10
74224;SHT31;62585;49.706;18.216;2024-01-11T12:03:43;2.04;57.58
74224;SHT31;62585;49.706;18.216;2024-01-11T12:06:15;2.25;56.75
74224;SHT31;62585;49.706;18.216;2024-01-11T12:08:45;2.31;56.79
74224;SHT31;62585;49.706;18.216;2024-01-11T12:11:20;2.07;57.54
74224;SHT31;62585;49.706;18.216;2024-01-11T12:13:48;1.84;56.04
74224;SHT31;62585;49.706;18.216;2024-01-11T12:16:14;1.69;57.99
74224;SHT31;62585;49.706;18.216;2024-01-11T12:18:40;1.91;59.40
74224;SHT31;62585;49.706;18.216;2024-01-11T12:21:07;1.96;56.64
74224;SHT31;62585;49.706;18.216;2024-01-11T12:23:34;1.42;57.88
74224;SHT31;62585;49.706;18.216;2024-01-11T12:26:06;1.29;59.05
74224;SHT31;62585;49.706;18.216;2024-01-11T12:28:37;1.69;59.44
74224;SHT31;62585;49.706;18.216;2024-01-11T12:31:03;1.66;58.38
74224;SHT31;62585;49.706;18.216;2024-01-11T12:33:29;0.98;58.66
74224;SHT31;62585;49.706;18.216;2024-01-11T12:35:55;1.11;59.41
74224;SHT31;62585;49.706;18.216;2024-01-11T12:38:21;0.81;61.05
74224;SHT31;62585;49.706;18.216;2024-01-11T12:40:47;1.11;63.58
74224;SHT31;62585;49.706;18.216;2024-01-11T12:43:13;1.07;62.13
74224;SHT31;62585;49.706;18.216;2024-01-11T12:45:39;0.88;60.84
74224;SHT31;62585;49.706;18.216;2024-01-11T12:48:09;0.94;64.14
74224;SHT31;62585;49.706;18.216;2024-01-11T12:50:35;0.94;64.03
74224;SHT31;62585;49.706;18.216;2024-01-11T12:55:35;1.19;62.66
74224;SHT31;62585;49.706;18.216;2024-01-11T12:58:07;1.45;62.60
74224;SHT31;62585;49.706;18.216;2024-01-11T13:00:35;1.12;62.13
74224;SHT31;62585;49.706;18.216;2024-01-11T13:03:02;1.12;60.85
74224;SHT31;62585;49.706;18.216;2024-01-11T13:05:28;1.08;60.91
74224;SHT31;62585;49.706;18.216;2024-01-11T13:07:54;0.95;61.03
74224;SHT31;62585;49.706;18.216;2024-01-11T13:10:19;0.76;61.53
74224;SHT31;62585;49.706;18.216;2024-01-11T13:12:45;0.53;61.21
74224;SHT31;62585;49.706;18.216;2024-01-11T13:15:11;0.62;61.70
74224;SHT31;62585;49.706;18.216;2024-01-11T13:17:37;0.53;61.10
74224;SHT31;62585;49.706;18.216;2024-01-11T13:20:03;0.32;62.29
74224;SHT31;62585;49.706;18.216;2024-01-11T13:22:29;0.36;61.61
74224;SHT31;62585;49.706;18.216;2024-01-11T13:24:54;0.35;63.61
74224;SHT31;62585;49.706;18.216;2024-01-11T13:27:20;0.63;64.43
74224;SHT31;62585;49.706;18.216;2024-01-11T13:29:46;0.32;61.70
74224;SHT31;62585;49.706;18.216;2024-01-11T13:32:12;0.36;62.56
74224;SHT31;62585;49.706;18.216;2024-01-11T13:34:37;0.72;63.91
74224;SHT31;62585;49.706;18.216;2024-01-11T13:37:03;0.59;62.08
74224;SHT31;62585;49.706;18.216;2024-01-11T13:39:29;0.36;60.95
74224;SHT31;62585;49.706;18.216;2024-01-11T13:41:55;0.36;62.66
74224;SHT31;62585;49.706;18.216;2024-01-11T13:44:20;0.19;62.23
74224;SHT31;62585;49.706;18.216;2024-01-11T13:46:46;-0.15;62.58
74224;SHT31;62585;49.706;18.216;2024-01-11T13:49:12;-0.30;63.28
74224;SHT31;62585;49.706;18.216;2024-01-11T13:51:38;-0.16;65.07
74224;SHT31;62585;49.706;18.216;2024-01-11T13:54:04;0.06;63.30
74224;SHT31;62585;49.706;18.216;2024-01-11T13:56:30;0.24;63.06
74224;SHT31;62585;49.706;18.216;2024-01-11T13:58:56;0.12;63.42
74224;SHT31;62585;49.706;18.216;2024-01-11T14:01:22;0.05;64.81
74224;SHT31;62585;49.706;18.216;2024-01-11T14:03:47;0.32;64.79
74224;SHT31;62585;49.706;18.216;2024-01-11T14:06:13;0.05;63.81
74224;SHT31;62585;49.706;18.216;2024-01-11T14:08:39;0.30;64.93
74224;SHT31;62585;49.706;18.216;2024-01-11T14:11:05;0.29;66.21
74224;SHT31;62585;49.706;18.216;2024-01-11T14:13:30;0.29;65.94
74224;SHT31;62585;49.706;18.216;2024-01-11T14:15:56;0.39;66.25
74224;SHT31;62585;49.706;18.216;2024-01-11T14:18:23;0.38;63.94
74224;SHT31;62585;49.706;18.216;2024-01-11T14:20:48;0.50;64.78
74224;SHT31;62585;49.706;18.216;2024-01-11T14:23:14;0.43;66.42
74224;SHT31;62585;49.706;18.216;2024-01-11T14:25:40;0.25;64.50
74224;SHT31;62585;49.706;18.216;2024-01-11T14:28:06;0.12;64.96
74224;SHT31;62585;49.706;18.216;2024-01-11T14:30:33;0.15;65.43
74224;SHT31;62585;49.706;18.216;2024-01-11T14:33:00;0.32;65.26
74224;SHT31;62585;49.706;18.216;2024-01-11T14:35:25;0.30;64.59
74224;SHT31;62585;49.706;18.216;2024-01-11T14:37:51;0.26;63.54
74224;SHT31;62585;49.706;18.216;2024-01-11T14:40:18;0.41;62.42
74224;SHT31;62585;49.706;18.216;2024-01-11T14:42:44;0.38;64.31
74224;SHT31;62585;49.706;18.216;2024-01-11T14:45:10;0.38;64.95
74224;SHT31;62585;49.706;18.216;2024-01-11T14:47:35;0.41;63.02
74224;SHT31;62585;49.706;18.216;2024-01-11T14:50:02;0.36;65.52
74224;SHT31;62585;49.706;18.216;2024-01-11T14:52:31;0.12;65.17
74224;SHT31;62585;49.706;18.216;2024-01-11T14:54:57;0.09;65.91
74224;SHT31;62585;49.706;18.216;2024-01-11T14:57:22;0.38;66.74
74224;SHT31;62585;49.706;18.216;2024-01-11T14:59:49;-0.24;63.70
74224;SHT31;62585;49.706;18.216;2024-01-11T15:02:14;-0.34;64.37
74224;SHT31;62585;49.706;18.216;2024-01-11T15:04:40;-0.13;66.82
74224;SHT31;62585;49.706;18.216;2024-01-11T15:07:06;0.09;67.50
74224;SHT31;62585;49.706;18.216;2024-01-11T15:09:34;0.06;65.71
74224;SHT31;62585;49.706;18.216;2024-01-11T15:11:59;-0.09;65.34
74224;SHT31;62585;49.706;18.216;2024-01-11T15:14:25;0.11;64.57
74224;SHT31;62585;49.706;18.216;2024-01-11T15:16:51;0.12;63.89
74224;SHT31;62585;49.706;18.216;2024-01-11T15:19:17;0.29;64.99